createdAt,value
2023-03-13T00:06:18.027Z,6.10
2023-03-13T00:15:31.797Z,6.60
2023-03-13T00:18:57.600Z,5.68
2023-03-13T00:22:12.677Z,7.30
2023-03-13T00:25:32.927Z,9.68
2023-03-13T00:28:23.105Z,8.40
2023-03-13T00:59:29.453Z,9.88
2023-03-13T01:01:56.791Z,9.98
2023-03-13T01:04:24.149Z,11.05
2023-03-13T01:06:51.637Z,8.82
2023-03-13T01:09:20.504Z,8.50
2023-03-13T01:11:47.823Z,8.75
2023-03-13T01:14:20.046Z,10.15
2023-03-13T01:16:48.987Z,9.25
2023-03-13T01:19:17.436Z,9.70
2023-03-13T01:21:45.865Z,8.30
2023-03-13T01:24:13.355Z,10.02
2023-03-13T01:26:41.065Z,8.98
2023-03-13T01:29:08.494Z,9.57
2023-03-13T01:31:36.746Z,8.70
2023-03-13T01:34:06.615Z,9.02
2023-03-13T01:36:35.534Z,8.45
2023-03-13T01:39:02.983Z,9.20
2023-03-13T01:41:31.041Z,7.60
2023-03-13T01:43:59.417Z,7.25
2023-03-13T01:46:28.721Z,8.05
2023-03-13T01:49:05.063Z,6.40
2023-03-13T01:51:43.599Z,7.25
2023-03-13T01:54:13.845Z,6.10
2023-03-13T01:56:56.082Z,5.47
2023-03-13T01:59:30.575Z,5.45
2023-03-13T02:02:02.966Z,5.95
2023-03-13T02:04:36.513Z,5.82
2023-03-13T02:07:08.845Z,5.35
2023-03-13T02:09:37.147Z,5.03
2023-03-13T02:12:13.725Z,4.60
2023-03-13T02:14:44.943Z,5.03
2023-03-13T02:17:13.888Z,4.22
2023-03-13T02:19:48.019Z,4.28
2023-03-13T02:22:27.867Z,5.13
2023-03-13T02:25:30.505Z,4.63
2023-03-13T02:27:58.978Z,4.00
2023-03-13T02:30:27.644Z,4.50
2023-03-13T02:32:55.793Z,3.38
2023-03-13T02:35:24.297Z,3.75
2023-03-13T02:37:56.281Z,3.45
2023-03-13T02:40:29.070Z,3.50
2023-03-13T02:43:01.369Z,4.10
2023-03-13T02:45:28.733Z,3.60
2023-03-13T02:47:56.040Z,3.28
2023-03-13T02:50:24.299Z,2.67
2023-03-13T02:53:00.980Z,4.40
2023-03-13T02:55:33.622Z,3.13
2023-03-13T02:58:00.928Z,3.28
2023-03-13T03:00:28.409Z,3.92
2023-03-13T03:02:56.324Z,3.20
2023-03-13T03:05:23.749Z,3.10
2023-03-13T03:07:51.759Z,3.33
2023-03-13T03:10:19.461Z,4.82
2023-03-13T03:12:46.789Z,6.28
2023-03-13T03:15:15.348Z,4.35
2023-03-13T03:17:43.149Z,3.97
2023-03-13T03:20:12.319Z,4.90
2023-03-13T03:22:40.976Z,4.55
2023-03-13T03:25:09.434Z,4.35
2023-03-13T03:27:37.452Z,4.03
2023-03-13T03:30:06.812Z,4.32
2023-03-13T03:32:34.687Z,3.53
2023-03-13T03:35:03.331Z,3.75
2023-03-13T03:37:30.661Z,2.60
2023-03-13T03:39:58.069Z,2.47
2023-03-13T03:42:27.289Z,2.67
2023-03-13T03:44:54.606Z,3.08
2023-03-13T03:47:22.104Z,2.55
2023-03-13T03:49:51.964Z,2.60
2023-03-13T03:52:20.473Z,2.75
2023-03-13T03:54:47.986Z,2.10
2023-03-13T03:57:15.328Z,2.17
2023-03-13T03:59:42.597Z,1.95
2023-03-13T04:02:11.288Z,1.42
2023-03-13T04:04:40.976Z,1.80
2023-03-13T04:07:08.331Z,1.88
2023-03-13T04:09:35.665Z,1.73
2023-03-13T04:12:02.981Z,1.75
2023-03-13T04:14:30.338Z,2.10
2023-03-13T04:16:57.677Z,2.28
2023-03-13T04:19:25.196Z,1.40
2023-03-13T04:21:52.496Z,1.60
2023-03-13T04:24:19.752Z,1.48
2023-03-13T04:26:47.041Z,1.48
2023-03-13T04:29:14.355Z,1.60
2023-03-13T04:31:41.811Z,2.95
2023-03-13T04:34:09.121Z,2.72
2023-03-13T04:36:36.422Z,2.40
2023-03-13T04:39:03.941Z,2.45
2023-03-13T04:41:31.220Z,2.50
2023-03-13T04:43:58.713Z,1.98
2023-03-13T04:46:26.065Z,3.60
2023-03-13T04:48:53.445Z,2.63
2023-03-13T04:51:20.816Z,2.78
2023-03-13T04:53:48.209Z,2.60
2023-03-13T04:56:41.594Z,3.22
2023-03-13T04:59:11.160Z,2.78
2023-03-13T05:01:38.672Z,3.10
2023-03-13T05:04:06.511Z,2.88
2023-03-13T05:06:33.839Z,2.10
2023-03-13T05:09:02.442Z,2.08
2023-03-13T05:11:30.148Z,2.92
2023-03-13T05:13:57.817Z,2.63
2023-03-13T05:16:25.475Z,3.00
2023-03-13T05:18:53.899Z,3.30
2023-03-13T05:21:21.298Z,3.15
2023-03-13T05:23:48.694Z,3.40
2023-03-13T05:26:17.484Z,2.83
2023-03-13T05:28:44.778Z,3.50
2023-03-13T05:31:12.392Z,6.38
2023-03-13T05:33:39.912Z,4.13
2023-03-13T05:36:07.658Z,4.18
2023-03-13T05:38:34.997Z,4.88
2023-03-13T05:41:02.483Z,4.28
2023-03-13T05:43:29.790Z,4.63
2023-03-13T05:45:57.146Z,5.78
2023-03-13T05:48:25.032Z,5.10
2023-03-13T05:50:52.434Z,4.57
2023-03-13T05:53:19.759Z,5.10
2023-03-13T05:55:47.096Z,4.80
2023-03-13T05:58:14.400Z,4.78
2023-03-13T06:00:43.726Z,5.78
2023-03-13T06:03:13.882Z,5.60
2023-03-13T06:05:41.679Z,6.03
2023-03-13T06:08:09.486Z,6.05
2023-03-13T06:10:37.006Z,5.25
2023-03-13T06:13:18.971Z,6.57
2023-03-13T06:15:54.625Z,5.53
2023-03-13T06:18:23.360Z,6.70
2023-03-13T06:20:55.932Z,5.45
2023-03-13T06:23:23.324Z,5.97
2023-03-13T06:25:51.189Z,5.35
2023-03-13T06:28:18.564Z,5.30
2023-03-13T06:30:46.024Z,5.32
2023-03-13T06:33:13.785Z,5.60
2023-03-13T06:35:55.902Z,5.68
2023-03-13T06:38:25.043Z,6.00
2023-03-13T06:40:52.996Z,6.93
2023-03-13T06:43:20.909Z,6.38
2023-03-13T06:45:48.368Z,5.47
2023-03-13T06:48:15.795Z,7.10
2023-03-13T06:50:43.663Z,7.15
2023-03-13T06:53:19.982Z,6.82
2023-03-13T06:55:49.117Z,7.20
2023-03-13T06:58:31.058Z,7.20
2023-03-13T07:01:00.943Z,7.78
2023-03-13T07:03:28.512Z,7.38
2023-03-13T07:06:00.015Z,8.25
2023-03-13T07:08:28.374Z,7.75
2023-03-13T07:11:00.048Z,8.70
2023-03-13T07:13:28.091Z,8.43
2023-03-13T07:16:00.062Z,9.75
2023-03-13T07:18:27.583Z,9.52
2023-03-13T07:20:57.582Z,9.60
2023-03-13T07:23:27.125Z,10.02
2023-03-13T07:25:59.914Z,8.75
2023-03-13T07:28:29.732Z,9.75
2023-03-13T07:31:04.565Z,10.88
2023-03-13T07:33:32.696Z,10.07
2023-03-13T07:36:00.052Z,9.75
2023-03-13T07:38:27.466Z,10.65
2023-03-13T07:40:57.223Z,9.05
2023-03-13T07:43:26.213Z,9.75
2023-03-13T07:45:59.100Z,9.15
2023-03-13T07:48:30.997Z,10.70
2023-03-13T07:50:58.723Z,9.93
2023-03-13T07:53:27.303Z,8.65
2023-03-13T07:56:10.432Z,9.93
2023-03-13T07:58:39.200Z,9.95
2023-03-13T08:01:12.557Z,11.48
2023-03-13T08:03:40.543Z,8.20
2023-03-13T08:06:12.864Z,9.57
2023-03-13T08:08:40.666Z,10.02
2023-03-13T08:11:11.639Z,9.82
2023-03-13T08:13:39.418Z,9.50
2023-03-13T08:16:08.091Z,8.18
2023-03-13T08:18:37.186Z,10.52
2023-03-13T08:21:09.801Z,10.05
2023-03-13T08:23:37.525Z,10.35
2023-03-13T08:26:13.860Z,11.38
2023-03-13T08:28:41.823Z,10.13
2023-03-13T08:31:17.959Z,12.02
2023-03-13T08:33:46.930Z,13.50
2023-03-13T08:36:18.178Z,9.90
2023-03-13T08:38:46.745Z,11.25
2023-03-13T08:41:17.196Z,12.20
2023-03-13T08:43:45.512Z,10.32
2023-03-13T08:46:13.779Z,12.85
2023-03-13T08:48:41.631Z,10.38
2023-03-13T08:51:15.063Z,13.45
2023-03-13T08:53:43.899Z,10.05
2023-03-13T08:56:13.716Z,11.30
2023-03-13T08:58:41.322Z,9.20
2023-03-13T09:01:13.912Z,9.88
2023-03-13T09:03:42.362Z,9.05
2023-03-13T09:06:11.288Z,10.57
2023-03-13T09:08:39.442Z,8.13
2023-03-13T09:11:12.328Z,9.90
2023-03-13T09:13:45.643Z,11.10
2023-03-13T09:16:15.796Z,9.18
2023-03-13T09:18:44.290Z,11.15
2023-03-13T09:21:26.419Z,10.27
2023-03-13T09:23:54.041Z,9.93
2023-03-13T09:26:23.419Z,9.77
2023-03-13T09:28:52.575Z,10.27
2023-03-13T09:31:25.964Z,11.32
2023-03-13T09:33:53.606Z,9.02
2023-03-13T09:36:23.162Z,10.13
2023-03-13T09:38:52.232Z,10.70
2023-03-13T09:41:22.731Z,9.57
2023-03-13T09:44:02.080Z,10.13
2023-03-13T09:46:43.642Z,10.85
2023-03-13T09:49:18.324Z,11.60
2023-03-13T09:51:51.047Z,10.50
2023-03-13T09:54:29.056Z,11.63
2023-03-13T09:57:37.899Z,10.85
2023-03-13T10:00:13.814Z,10.70
2023-03-13T10:02:47.578Z,10.35
2023-03-13T10:05:27.373Z,9.88
2023-03-13T10:08:16.059Z,10.57
2023-03-13T10:11:17.721Z,10.43
2023-03-13T10:13:53.086Z,9.98
2023-03-13T10:16:26.382Z,10.30
2023-03-13T10:18:56.982Z,12.77
2023-03-13T10:21:32.477Z,12.90
2023-03-13T10:24:38.520Z,10.25
2023-03-13T10:27:15.806Z,10.55
2023-03-13T10:29:43.278Z,9.25
2023-03-13T10:32:17.095Z,10.23
2023-03-13T10:35:00.947Z,10.50
2023-03-13T10:37:40.318Z,9.60
2023-03-13T10:40:25.851Z,9.10
2023-03-13T10:43:01.033Z,11.65
2023-03-13T10:45:32.788Z,10.70
2023-03-13T10:48:15.395Z,9.60
2023-03-13T10:50:46.981Z,9.88
2023-03-13T10:53:29.467Z,10.40
2023-03-13T10:56:19.605Z,10.43
2023-03-13T10:58:49.532Z,11.27
2023-03-13T11:01:32.548Z,11.10
2023-03-13T11:04:18.494Z,10.02
2023-03-13T11:06:52.928Z,10.90
2023-03-13T11:09:20.321Z,10.85
2023-03-13T11:11:47.547Z,8.32
2023-03-13T11:14:20.843Z,10.25
2023-03-13T11:16:55.320Z,9.55
2023-03-13T11:19:28.335Z,10.82
2023-03-13T11:22:13.884Z,9.00
2023-03-13T11:25:13.486Z,9.15
2023-03-13T11:28:03.550Z,10.90
2023-03-13T11:30:42.619Z,10.68
2023-03-13T11:33:28.543Z,10.55
2023-03-13T11:36:12.238Z,10.05
2023-03-13T11:38:43.120Z,9.25
2023-03-13T11:41:25.868Z,10.85
2023-03-13T11:44:04.130Z,12.50
2023-03-13T11:47:03.701Z,9.75
2023-03-13T11:49:42.284Z,13.68
2023-03-13T11:52:19.973Z,9.70
2023-03-13T11:54:59.221Z,9.52
2023-03-13T11:57:43.039Z,10.70
2023-03-13T12:00:25.369Z,9.93
2023-03-13T12:03:20.957Z,11.43
2023-03-13T12:05:59.964Z,10.27
2023-03-13T12:08:43.536Z,10.65
2023-03-13T12:11:31.631Z,9.70
2023-03-13T12:14:09.981Z,9.85
2023-03-13T12:16:51.781Z,9.88
2023-03-13T12:19:52.697Z,10.38
2023-03-13T12:22:34.026Z,10.77
2023-03-13T12:25:10.537Z,10.60
2023-03-13T12:30:27.566Z,8.88
2023-03-13T12:33:24.606Z,10.15
2023-03-13T12:36:02.382Z,9.57
2023-03-13T12:38:59.406Z,9.55
2023-03-13T12:41:42.095Z,10.40
2023-03-13T12:44:20.478Z,10.43
2023-03-13T12:47:01.631Z,10.38
2023-03-13T12:49:28.892Z,10.93
2023-03-13T12:51:59.176Z,9.73
2023-03-13T12:55:07.794Z,10.70
2023-03-13T12:58:13.036Z,11.73
2023-03-13T13:00:44.258Z,11.93
2023-03-13T13:03:24.507Z,12.18
2023-03-13T13:06:06.235Z,10.38
2023-03-13T13:08:41.272Z,8.75
2023-03-13T13:11:38.110Z,9.93
2023-03-13T13:14:17.733Z,8.82
2023-03-13T13:17:02.502Z,10.20
2023-03-13T13:20:00.689Z,9.60
2023-03-13T13:22:37.245Z,10.88
2023-03-13T13:25:11.069Z,11.68
2023-03-13T13:27:38.326Z,11.13
2023-03-13T13:30:31.225Z,10.32
2023-03-13T13:33:20.858Z,9.63
2023-03-13T13:36:10.956Z,8.05
2023-03-13T13:38:42.075Z,9.70
2023-03-13T13:41:09.355Z,10.52
2023-03-13T13:43:49.962Z,11.10
2023-03-13T13:46:33.485Z,11.25
2023-03-13T13:49:07.618Z,11.23
2023-03-13T13:51:36.264Z,10.68
2023-03-13T13:54:24.561Z,10.75
2023-03-13T13:57:07.926Z,10.27
2023-03-13T13:59:42.841Z,10.73
2023-03-13T14:02:10.854Z,10.15
2023-03-13T14:04:45.032Z,10.80
2023-03-13T14:07:27.728Z,8.88
2023-03-13T14:10:30.785Z,11.18
2023-03-13T14:13:00.887Z,9.38
2023-03-13T14:15:33.724Z,10.20
2023-03-13T14:18:16.756Z,10.48
2023-03-13T14:20:50.339Z,9.02
2023-03-13T14:23:45.354Z,10.48
2023-03-13T14:26:18.676Z,10.77
2023-03-13T14:29:15.384Z,9.15
2023-03-13T14:31:51.644Z,8.77
2023-03-13T14:34:19.114Z,9.75
2023-03-13T14:37:14.955Z,10.35
2023-03-13T14:39:45.513Z,10.35
2023-03-13T14:42:20.060Z,9.30
2023-03-13T14:44:50.602Z,9.43
2023-03-13T14:47:44.573Z,9.85
2023-03-13T14:50:15.274Z,10.43
2023-03-13T14:53:13.646Z,8.30
2023-03-13T14:55:41.327Z,11.05
2023-03-13T14:58:20.790Z,10.32
2023-03-13T15:00:49.813Z,10.35
2023-03-13T15:03:21.795Z,10.63
2023-03-13T15:06:16.037Z,8.68
2023-03-13T15:08:49.772Z,9.50
2023-03-13T15:11:21.551Z,9.43
2023-03-13T15:13:49.003Z,10.07
2023-03-13T15:16:21.772Z,11.10
2023-03-13T15:18:51.403Z,8.20
2023-03-13T15:21:23.477Z,10.38
2023-03-13T15:24:01.586Z,9.75
2023-03-13T15:26:29.695Z,11.65
2023-03-13T15:28:57.059Z,11.70
2023-03-13T15:31:30.776Z,11.80
2023-03-13T15:34:00.934Z,10.38
2023-03-13T15:36:29.657Z,9.60
2023-03-13T15:38:57.289Z,11.10
2023-03-13T15:41:25.140Z,9.93
2023-03-13T15:43:52.784Z,10.45
2023-03-13T15:46:21.029Z,10.32
2023-03-13T15:48:48.587Z,12.07
2023-03-13T15:51:17.167Z,10.93
2023-03-13T15:53:46.458Z,9.25
2023-03-13T15:56:17.423Z,10.10
2023-03-13T15:58:46.582Z,10.70
2023-03-13T16:01:15.698Z,8.48
2023-03-13T16:03:43.315Z,9.95
2023-03-13T16:06:16.329Z,9.00
2023-03-13T16:08:44.813Z,8.93
2023-03-13T16:11:15.435Z,8.90
2023-03-13T16:13:43.027Z,9.40
2023-03-13T16:16:22.459Z,9.60
2023-03-13T16:18:50.971Z,10.30
2023-03-13T16:21:29.720Z,8.50
2023-03-13T16:23:57.380Z,9.32
2023-03-13T16:26:29.893Z,11.10
2023-03-13T16:28:58.201Z,7.90
2023-03-13T16:31:28.428Z,10.05
2023-03-13T16:33:57.194Z,7.50
2023-03-13T16:36:31.322Z,6.95
2023-03-13T16:39:00.962Z,10.15
2023-03-13T16:41:29.354Z,10.27
2023-03-13T16:43:57.260Z,8.05
2023-03-13T16:46:36.671Z,8.25
2023-03-13T16:49:04.871Z,7.30
2023-03-13T16:51:33.873Z,8.80
2023-03-13T16:54:03.612Z,7.57
2023-03-13T16:56:39.921Z,9.20
2023-03-13T16:59:12.119Z,8.45
2023-03-13T17:01:39.602Z,9.63
2023-03-13T17:04:07.331Z,9.43
2023-03-13T17:06:41.397Z,8.10
2023-03-13T17:09:17.686Z,9.30
2023-03-13T17:11:45.532Z,7.82
2023-03-13T17:14:13.599Z,9.02
2023-03-13T17:16:45.781Z,7.88
2023-03-13T17:19:14.607Z,10.20
2023-03-13T17:21:42.304Z,10.70
2023-03-13T17:49:22.273Z,7.85
2023-03-13T18:23:46.672Z,8.63
2023-03-13T18:26:30.834Z,7.47
2023-03-13T18:58:12.793Z,7.40
2023-03-13T19:00:40.190Z,7.93
2023-03-13T19:03:07.532Z,6.68
2023-03-13T19:05:35.099Z,7.25
2023-03-13T19:08:02.466Z,7.50
2023-03-13T19:10:31.451Z,8.38
2023-03-13T19:13:00.321Z,6.43
2023-03-13T19:15:30.180Z,6.20
2023-03-13T19:18:03.460Z,6.78
2023-03-13T19:20:31.228Z,6.10
2023-03-13T19:23:00.732Z,5.50
2023-03-13T19:25:29.381Z,5.72
2023-03-13T19:27:56.772Z,6.85
2023-03-13T19:30:25.703Z,6.20
2023-03-13T19:32:53.233Z,5.78
2023-03-13T19:35:22.040Z,7.03
2023-03-13T20:29:11.549Z,4.43
2023-03-13T20:31:38.932Z,5.32
2023-03-13T20:34:06.404Z,5.10
2023-03-13T20:36:33.750Z,5.90
2023-03-13T20:39:01.455Z,4.47
2023-03-13T20:41:31.209Z,5.55
2023-03-13T20:43:58.718Z,4.35
2023-03-13T20:46:26.940Z,3.88
2023-03-13T20:48:54.296Z,3.97
2023-03-13T20:51:21.522Z,4.70
2023-03-13T20:53:49.700Z,4.13
2023-03-13T20:56:17.022Z,4.88
2023-03-13T20:58:44.421Z,4.63
2023-03-13T21:01:11.835Z,4.10
2023-03-13T21:03:39.753Z,7.13
2023-03-13T21:06:12.831Z,5.05
2023-03-13T21:08:40.219Z,4.95
2023-03-13T21:11:17.888Z,5.03
2023-03-13T21:31:16.756Z,6.28
2023-03-13T21:33:45.335Z,5.85
2023-03-13T21:36:14.316Z,5.82
2023-03-13T21:38:42.264Z,5.15
2023-03-13T21:41:16.027Z,5.85
2023-03-13T21:43:43.960Z,6.07
2023-03-13T21:46:15.584Z,6.15
2023-03-13T21:51:18.156Z,5.50
2023-03-13T21:53:45.492Z,4.80
2023-03-13T21:56:16.893Z,5.05
2023-03-13T21:58:45.546Z,5.13
2023-03-13T22:01:14.331Z,4.88
2023-03-13T22:03:41.757Z,5.03
2023-03-13T22:06:20.861Z,5.80
2023-03-13T22:08:49.746Z,6.68
2023-03-13T22:11:17.660Z,5.55
2023-03-13T22:13:45.017Z,5.45
2023-03-13T22:16:12.531Z,5.55
2023-03-13T22:34:24.232Z,5.43
2023-03-13T22:36:51.549Z,6.32
2023-03-13T22:39:18.991Z,6.55
2023-03-13T22:41:46.566Z,6.53
2023-03-13T22:44:13.828Z,7.18
2023-03-13T22:46:41.274Z,7.10
2023-03-13T22:49:08.738Z,5.53
2023-03-13T22:51:36.758Z,7.65
2023-03-13T22:54:05.858Z,6.45
2023-03-13T22:56:33.197Z,6.43
2023-03-13T22:59:00.879Z,6.03
2023-03-13T23:01:28.298Z,8.65
2023-03-13T23:03:55.605Z,5.65
2023-03-13T23:06:24.605Z,7.05
2023-03-13T23:08:52.288Z,7.32
2023-03-13T23:11:20.687Z,7.53
2023-03-13T23:13:48.569Z,5.68
2023-03-13T23:16:15.986Z,6.22
2023-03-13T23:18:43.333Z,7.13
2023-03-13T23:21:13.134Z,6.75
2023-03-13T23:23:40.847Z,6.68
2023-03-13T23:26:11.786Z,7.97
2023-03-13T23:28:39.866Z,5.93
2023-03-13T23:31:16.484Z,7.15
2023-03-13T23:33:44.741Z,7.13
2023-03-13T23:36:15.564Z,6.75
2023-03-13T23:38:43.252Z,7.60
2023-03-13T23:41:12.965Z,6.85
2023-03-13T23:43:41.248Z,6.20
2023-03-13T23:46:19.990Z,6.95
2023-03-13T23:48:47.422Z,6.38
2023-03-13T23:51:15.198Z,7.25
2023-03-13T23:53:44.202Z,7.47
2023-03-13T23:56:12.260Z,8.30
2023-03-13T23:58:39.790Z,6.90
